• Join FlightAware (Why Join?)
  • Login
  • US Flag 
09:41AM EST


 

Airport Tracker/Info


-or-


 

Live Flight TrackerFlight Track Log ✈ SWA385 ✈ 10-Jul-2013 ✈ KSMF - KSNA

Flight Track Log - Related Links

Times and Time Zones

All times are in EDT time to prevent confusion due to time zone crossing. See the SWA385 flight status page for this flight to view local times or setup timezone preferences in your user account.

Time Position Orientation Groundspeed Altitude Reporting Facility
EDT Latitude Longitude Course Direction KTS MPH feet Rate Location/Type
12:35AM 38.6500 -121.5667 128° Southeast 191 220 3,800  Level Northern Cal TRACON
12:37AM 38.6050 -121.4919 128° Southeast 198 228 10,100 3,360 Climbing Oakland Center
12:38AM 38.5561 -121.4183 130° Southeast 285 328 12,500 3,180 Climbing Oakland Center
12:39AM 38.4958 -121.3281 130° Southeast 333 383 16,600 3,780 Climbing Oakland Center
12:40AM 38.4425 -121.2144 121° Southeast 384 442 20,200 3,660 Climbing Oakland Center
12:41AM 38.3911 -121.0839 117° Southeast 393 452 24,100 3,360 Climbing Oakland Center
12:42AM 38.3408 -120.9561 117° Southeast 403 464 27,100 2,400 Climbing Oakland Center
12:43AM 38.2881 -120.8264 117° Southeast 411 473 29,000 1,620 Climbing Oakland Center
12:44AM 38.2169 -120.6700 120° Southeast 425 489 30,400 1,860 Climbing Oakland Center
12:45AM 38.1261 -120.5789 142° Southeast 415 478 32,800 2,400 Climbing Oakland Center
12:46AM 38.0350 -120.4897 142° Southeast 413 475 35,400 2,160 Climbing Oakland Center
12:47AM 37.9442 -120.4033 143° Southeast 410 472 37,300 1,800 Climbing Oakland Center
12:48AM 37.8550 -120.3119 141° Southeast 412 474 39,100 1,680 Climbing Oakland Center
12:49AM 37.7633 -120.2239 143° Southeast 413 475 40,800 960 Climbing Oakland Center
12:50AM 37.6708 -120.1344 143° Southeast 417 480 41,100 120 Climbing Oakland Center
12:51AM 37.5786 -120.0461 143° Southeast 416 479 41,100  Level Oakland Center
12:52AM 37.4878 -119.9581 142° Southeast 412 474 41,100  Level Oakland Center
12:53AM 37.3969 -119.8714 143° Southeast 410 472 41,100 -60 Level Oakland Center
12:54AM 37.2967 -119.7756 143° Southeast 408 470 41,000 -60 Descending Oakland Center
12:55AM 37.2061 -119.6903 143° Southeast 407 468 41,000  Level Oakland Center
12:56AM 37.1131 -119.6067 144° Southeast 410 472 41,100  Climbing Oakland Center
12:57AM 37.0072 -119.5969 176° South 386 444 41,000 -60 Descending Oakland Center
12:58AM 36.9003 -119.5986 181° South 383 441 41,000  Level Oakland Center
12:59AM 36.7928 -119.5992 180° South 387 445 41,000  Level Oakland Center
01:00AM 36.6856 -119.6008 181° South 385 443 41,000  Level Oakland Center
01:01AM 36.5767 -119.6039 181° South 389 448 41,000  Level Oakland Center
01:02AM 36.4678 -119.6050 180° South 391 450 41,000  Level Oakland Center
01:03AM 36.3589 -119.6064 181° South 391 450 41,000  Level Oakland Center
01:04AM 36.2267 -119.6094 181° South 394 453 41,000  Level Oakland Center
01:05AM 36.1169 -119.6108 181° South 394 453 41,000  Level Oakland Center
01:06AM 36.0072 -119.6128 181° South 394 453 41,000  Level Oakland Center
01:07AM 35.8981 -119.6147 181° South 393 452 41,000  Level Oakland Center
01:08AM 35.7881 -119.6214 183° South 394 453 41,000  Level Oakland Center
01:09AM 35.6769 -119.6250 182° South 396 456 41,000  Level Oakland Center
01:11AM 35.5689 -119.6150 176° South 397 457 41,000  Level Los Angeles Center
01:12AM 35.4647 -119.5622 158° South 403 464 41,000  Level Los Angeles Center
01:13AM 35.3611 -119.5122 159° South 400 460 41,000  Level Los Angeles Center
01:14AM 35.2569 -119.4617 158° South 400 460 41,000  Level Los Angeles Center
01:15AM 35.1311 -119.4000 158° South 404 465 41,000  Level Los Angeles Center
01:16AM 35.0325 -119.3306 150° Southeast 409 471 41,000  Level Los Angeles Center
01:17AM 34.9319 -119.2642 152° Southeast 409 471 41,000 -120 Level Los Angeles Center
01:18AM 34.8314 -119.1967 151° Southeast 412 474 40,800 -1,080 Descending Los Angeles Center
01:19AM 34.7339 -119.1342 152° Southeast 401 461 38,900 -2,340 Descending Los Angeles Center
01:20AM 34.6336 -119.0661 151° Southeast 394 453 36,100 -3,180 Descending Los Angeles Center
01:21AM 34.5336 -118.9997 151° Southeast 405 466 32,400 -3,480 Descending Los Angeles Center
01:22AM 34.4308 -118.9314 151° Southeast 417 480 29,000 -3,180 Descending Los Angeles Center
01:23AM 34.3272 -118.8722 155° Southeast 413 475 26,000 -2,880 Descending Los Angeles Center
01:24AM 34.2203 -118.8317 163° South 404 465 23,100 -2,880 Descending Los Angeles Center
01:25AM 34.1158 -118.7933 163° South 390 449 20,200 -3,180 Descending Los Angeles Center
01:26AM 33.9931 -118.7489 163° South 386 444 16,700 -3,000 Descending Los Angeles Center
01:27AM 33.8950 -118.7125 163° South 373 429 14,100 -1,380 Descending Los Angeles Center
01:28AM 33.8014 -118.6789 163° South 356 410 14,000 -420 Descending Los Angeles Center
01:29AM 33.7092 -118.6453 163° South 350 403 13,300 -1,380 Descending Los Angeles Center
01:30AM 33.6092 -118.6092 163° South 316 364 11,000 -1,680 Descending Los Angeles Center
01:31AM 33.5564 -118.5267 127° Southeast 300 345 9,200 -1,920 Descending Los Angeles Center
01:32AM 33.5556 -118.4106 90° East 294 338 6,800 -2,040 Descending Los Angeles Center
01:33AM 33.5608 -118.3128 86° East 297 342 5,200 -900 Descending Los Angeles Center
01:34AM 33.5806 -118.2203 76° East 292 336 5,000 -120 Descending Los Angeles Center
01:35AM 33.5967 -118.1358 77° East 276 318 5,000  Level Los Angeles Center
01:36AM 33.6108 -118.0606 77° East 246 283 5,000 -540 Level Los Angeles Center
01:38AM 33.6333 -117.9667 74° East 227 261 3,900 -1,080 Descending Southern California TRACON
01:39AM 33.6833 -117.9167 40° Northeast 185 213 2,600 -900 Descending Southern California TRACON
01:40AM 33.7167 -117.9000 23° Northeast 163 188 2,200 -900 Descending Southern California TRACON
01:41AM 33.7167 -117.8500 90° East 120 138 1,000 -1,020 Descending Southern California TRACON
01:42AM 33.6833 -117.8667 203° Southwest 121 139 200 -840 Descending Southern California TRACON